Kezdőlap
METAR-TAF:

METAR-TAF

Repülőterek :

Vakkanai, Japán

földrajzi szélesség: 45-24N, földrajzi hosszúság: 141-48E, magasság: 8 m

Jelenlegi meteorológiai megfigyelések

A jelentés 11 órával és 10 perccel ezelõtt készült, 09:00 UTC
Nyugat-északnyugati szél 11 kt
Hőmérséklet 7°C
Páratartalom 87%
Légköri nyomás 1006 hPa
Látótávolság 10 km, vagy több
Kevés felhő 800 lábon
Szórványos felhőzet 1200 lábon
Szakadozott felhőzet 1400 lábon

METAR: RJCW 290900Z 29011KT 9999 FEW008 SCT012 BKN014 07/05 Q1006

Idő: 05:10 (20:10 UTC)


TAF: hiányzik

Meteorológiai megfigyelések és előrejelzések több, mint 4000 repülőtéren (METAR és TAF jelentéseket).

A térképen piros és sárga pontok jelzik az elérhető meteorológiai állomásokat.

Mozgassa az egeret a pont fölött, hogy megjelenjen az állomás neve.

Azután kattintson az időjárási megfigyelések és előrejelzések megtekintéséhez.

A térkép megváltoztatása: kattintson a fekete keresztel jelölt zöld gombra ráközelítéshez, a vonallal jelölt zöld gombra távolításhoz, vagy a zöld nyilakra a szomszédos térképek eléréséhez.


METAR-TAF: